Dothan, West Virginia
Current Conditions -  °F | °C
As of 8:51 AM on Wednesday 26 Nov 2014 (Local Time) from KBKW Reporting Station
Moderate Snow Moderate Snow  
Wind Chill: 33°   Ceiling: 900
Heat Index: 33°   Visibility: 0.5mi
Dew Point: 32°   Wind: 0mph
Humidity: 96%   Direction: NA
Pressure: 30"   Gusts: NA
Location:  37.97°N, 81.22°W
Report Text: KBKW 261351Z AUTO 00000KT 1/2SM SN FG VV009 01/00 A3000 RMK AO2 SLP177 P0009 T00060000
Loading
Personal Weather Stations






























Interactive Weather Map New forecast layout! Learn more

10-Day Weather Forecast

Advertisements
Track Severe Weather on mobile